This is the latest recevied weather packets stored in our database for station/object IU1OLT-5. If no packets are shown the sender has not sent any weather packets the latest 1 day(s).
| Time | Temp. | Humidity | Pressure | Rain* | Wind** | Luminosity | Snow |
|---|---|---|---|---|---|---|---|
| 1778082150 | 15.56° C | 91% | 1010.5 hPa | 0 mm | - | 102 W/m² | - |
| 1778078549 | 17.78° C | 87% | 1010.3 hPa | 0 mm | - | 506 W/m² | - |
| 1778075848 | 17.22° C | 88% | 1010.2 hPa | 0 mm | - | 403 W/m² | - |
| 1778073147 | 16.11° C | 94% | 1010.4 hPa | 0 mm | - | 385 W/m² | - |
| 1778072247 | 16.67° C | 93% | 1010.5 hPa | 0 mm | - | 139 W/m² | - |
| 1778069546 | 16.67° C | 91% | 1010.4 hPa | 0 mm | - | 175 W/m² | - |
| 1778065945 | 16.67° C | 92% | 1010.3 hPa | 0 mm | - | 734 W/m² | - |
| 1778063243 | 14.44° C | 99% | 1010.3 hPa | 0 mm | - | 98 W/m² | - |
| 1778062343 | 15° C | 99% | 1010 hPa | 0 mm | - | 157 W/m² | - |
| 1778059642 | 15.56° C | 99% | 1009.4 hPa | 0 mm | - | 126 W/m² | - |
| 1778056941 | 15° C | 99% | 1009.2 hPa | 1.27 mm | - | 196 W/m² | - |
| 1778054240 | 15.56° C | 99% | 1008.8 hPa | 0 mm | - | 81 W/m² | - |
| 1778052439 | 15° C | 99% | 1009 hPa | 0 mm | - | 134 W/m² | - |
| 1778051539 | 15° C | 99% | 1008.9 hPa | 1.78 mm | - | 61 W/m² | - |
| 1778050638 | 15° C | 99% | 1009 hPa | 0 mm | - | 11 W/m² | - |
| 1778049738 | 14.44° C | 99% | 1008.8 hPa | 0 mm | - | 39 W/m² | - |
| 1778047937 | 13.89° C | 99% | 1008.7 hPa | 1.27 mm | - | 13 W/m² | - |
| 1778047037 | 13.33° C | 99% | 1008.9 hPa | 0 mm | - | 29 W/m² | - |
| 1778045236 | 13.89° C | 99% | 1008.8 hPa | 1.78 mm | - | 13 W/m² | - |
| 1778043435 | -17.78° C | 100% | 0 hPa | 0 mm | - | 0 W/m² | - |
| 1778040791 | 12.22° C | 99% | 1009 hPa | 0 mm | - | 0 W/m² | - |
| 1778039891 | 12.22° C | 99% | 1009.2 hPa | 0 mm | - | 0 W/m² | - |
| 1778038991 | 12.78° C | 99% | 1009.3 hPa | 0 mm | - | 0 W/m² | - |
| 1778038091 | 12.78° C | 99% | 1009.4 hPa | 0 mm | - | 0 W/m² | - |
| 1778037191 | 12.78° C | 99% | 1009.4 hPa | 1.78 mm | - | 0 W/m² | - |
* Rain latest hour (hover to see other rain measurements)
** Current wind speed in m/s (hover to see current wind gust speed)